sensor_id;sensor_type;location;lat;lon;timestamp;P1;durP1;ratioP1;P2;durP2;ratioP2
74658;SDS011;63186;51.204;6.536;2023-04-01T00:00:19;2.85;;;0.90;;
74658;SDS011;63186;51.204;6.536;2023-04-01T00:02:45;1.92;;;1.10;;
74658;SDS011;63186;51.204;6.536;2023-04-01T00:05:10;5.18;;;1.20;;
74658;SDS011;63186;51.204;6.536;2023-04-01T00:07:36;3.63;;;0.80;;
74658;SDS011;63186;51.204;6.536;2023-04-01T00:10:03;2.78;;;1.00;;
74658;SDS011;63186;51.204;6.536;2023-04-01T00:12:29;4.40;;;0.88;;
74658;SDS011;63186;51.204;6.536;2023-04-01T00:14:55;3.08;;;1.00;;
74658;SDS011;63186;51.204;6.536;2023-04-01T00:17:20;2.15;;;0.90;;
74658;SDS011;63186;51.204;6.536;2023-04-01T00:19:46;2.45;;;0.75;;
74658;SDS011;63186;51.204;6.536;2023-04-01T00:22:11;6.05;;;1.20;;
74658;SDS011;63186;51.204;6.536;2023-04-01T00:24:37;0.85;;;0.70;;
74658;SDS011;63186;51.204;6.536;2023-04-01T00:27:03;2.88;;;1.35;;
74658;SDS011;63186;51.204;6.536;2023-04-01T00:29:28;3.33;;;1.08;;
74658;SDS011;63186;51.204;6.536;2023-04-01T00:31:55;1.52;;;1.10;;
74658;SDS011;63186;51.204;6.536;2023-04-01T00:34:23;4.40;;;1.30;;
74658;SDS011;63186;51.204;6.536;2023-04-01T00:36:49;2.08;;;1.20;;
74658;SDS011;63186;51.204;6.536;2023-04-01T00:39:15;2.72;;;0.85;;
74658;SDS011;63186;51.204;6.536;2023-04-01T00:41:40;4.85;;;0.85;;
74658;SDS011;63186;51.204;6.536;2023-04-01T00:44:16;3.03;;;0.90;;
74658;SDS011;63186;51.204;6.536;2023-04-01T00:46:43;3.78;;;0.73;;
74658;SDS011;63186;51.204;6.536;2023-04-01T00:49:09;2.40;;;0.85;;
74658;SDS011;63186;51.204;6.536;2023-04-01T00:51:34;2.45;;;0.80;;
74658;SDS011;63186;51.204;6.536;2023-04-01T00:54:06;3.97;;;1.23;;
74658;SDS011;63186;51.204;6.536;2023-04-01T00:56:45;1.83;;;0.60;;
74658;SDS011;63186;51.204;6.536;2023-04-01T00:59:16;4.97;;;1.10;;
74658;SDS011;63186;51.204;6.536;2023-04-01T01:01:46;3.65;;;1.00;;
74658;SDS011;63186;51.204;6.536;2023-04-01T01:04:25;2.57;;;0.90;;
74658;SDS011;63186;51.204;6.536;2023-04-01T01:12:33;1.52;;;0.80;;
74658;SDS011;63186;51.204;6.536;2023-04-01T01:15:11;4.03;;;0.77;;
74658;SDS011;63186;51.204;6.536;2023-04-01T01:17:57;4.43;;;0.90;;
74658;SDS011;63186;51.204;6.536;2023-04-01T01:26:13;2.50;;;0.90;;
74658;SDS011;63186;51.204;6.536;2023-04-01T01:31:23;2.47;;;0.60;;
74658;SDS011;63186;51.204;6.536;2023-04-01T01:33:59;3.25;;;1.10;;
74658;SDS011;63186;51.204;6.536;2023-04-01T01:36:36;1.58;;;0.93;;
74658;SDS011;63186;51.204;6.536;2023-04-01T01:39:04;3.20;;;0.82;;
74658;SDS011;63186;51.204;6.536;2023-04-01T01:41:32;3.45;;;0.90;;
74658;SDS011;63186;51.204;6.536;2023-04-01T01:43:59;0.98;;;0.73;;
74658;SDS011;63186;51.204;6.536;2023-04-01T01:46:29;4.20;;;1.10;;
74658;SDS011;63186;51.204;6.536;2023-04-01T01:48:55;2.28;;;1.00;;
74658;SDS011;63186;51.204;6.536;2023-04-01T01:51:23;2.13;;;0.82;;
74658;SDS011;63186;51.204;6.536;2023-04-01T01:53:49;2.70;;;1.08;;
74658;SDS011;63186;51.204;6.536;2023-04-01T01:56:15;2.22;;;0.70;;
74658;SDS011;63186;51.204;6.536;2023-04-01T02:01:24;5.88;;;1.23;;
74658;SDS011;63186;51.204;6.536;2023-04-01T02:03:52;0.93;;;0.73;;
74658;SDS011;63186;51.204;6.536;2023-04-01T02:06:21;4.32;;;0.82;;
74658;SDS011;63186;51.204;6.536;2023-04-01T02:08:53;1.40;;;0.80;;
74658;SDS011;63186;51.204;6.536;2023-04-01T02:11:29;1.80;;;0.63;;
74658;SDS011;63186;51.204;6.536;2023-04-01T02:14:03;2.70;;;0.85;;
74658;SDS011;63186;51.204;6.536;2023-04-01T02:16:34;3.72;;;0.93;;
74658;SDS011;63186;51.204;6.536;2023-04-01T02:19:05;1.98;;;0.90;;
74658;SDS011;63186;51.204;6.536;2023-04-01T02:21:34;2.38;;;0.80;;
74658;SDS011;63186;51.204;6.536;2023-04-01T02:24:02;5.00;;;0.90;;
74658;SDS011;63186;51.204;6.536;2023-04-01T02:26:32;1.90;;;0.73;;
74658;SDS011;63186;51.204;6.536;2023-04-01T02:28:59;3.65;;;1.45;;
74658;SDS011;63186;51.204;6.536;2023-04-01T02:31:26;2.35;;;0.80;;
74658;SDS011;63186;51.204;6.536;2023-04-01T02:33:52;1.58;;;0.82;;
74658;SDS011;63186;51.204;6.536;2023-04-01T02:36:19;2.60;;;1.05;;
74658;SDS011;63186;51.204;6.536;2023-04-01T02:38:45;3.33;;;0.98;;
74658;SDS011;63186;51.204;6.536;2023-04-01T02:41:12;2.15;;;0.68;;
74658;SDS011;63186;51.204;6.536;2023-04-01T02:43:38;2.30;;;1.08;;
74658;SDS011;63186;51.204;6.536;2023-04-01T02:46:03;2.85;;;1.10;;
74658;SDS011;63186;51.204;6.536;2023-04-01T02:48:29;2.05;;;0.93;;
74658;SDS011;63186;51.204;6.536;2023-04-01T02:50:54;3.55;;;1.20;;
74658;SDS011;63186;51.204;6.536;2023-04-01T02:53:20;2.38;;;0.90;;
74658;SDS011;63186;51.204;6.536;2023-04-01T02:55:46;1.30;;;0.90;;
74658;SDS011;63186;51.204;6.536;2023-04-01T02:58:11;3.33;;;1.02;;
74658;SDS011;63186;51.204;6.536;2023-04-01T03:00:36;3.20;;;1.10;;
74658;SDS011;63186;51.204;6.536;2023-04-01T03:03:02;3.03;;;1.20;;
74658;SDS011;63186;51.204;6.536;2023-04-01T03:05:27;3.75;;;0.88;;
74658;SDS011;63186;51.204;6.536;2023-04-01T03:07:53;1.73;;;0.95;;
74658;SDS011;63186;51.204;6.536;2023-04-01T03:10:18;2.80;;;0.70;;
74658;SDS011;63186;51.204;6.536;2023-04-01T03:12:43;1.00;;;0.70;;
74658;SDS011;63186;51.204;6.536;2023-04-01T03:15:10;1.53;;;0.57;;
74658;SDS011;63186;51.204;6.536;2023-04-01T03:17:36;0.47;;;0.43;;
74658;SDS011;63186;51.204;6.536;2023-04-01T03:20:02;3.50;;;1.08;;
74658;SDS011;63186;51.204;6.536;2023-04-01T03:22:29;3.00;;;1.48;;
74658;SDS011;63186;51.204;6.536;2023-04-01T03:24:55;2.72;;;0.90;;
74658;SDS011;63186;51.204;6.536;2023-04-01T03:27:20;3.90;;;1.10;;
74658;SDS011;63186;51.204;6.536;2023-04-01T03:29:45;2.27;;;1.03;;
74658;SDS011;63186;51.204;6.536;2023-04-01T03:32:11;2.83;;;1.00;;
74658;SDS011;63186;51.204;6.536;2023-04-01T03:34:36;1.10;;;0.90;;
74658;SDS011;63186;51.204;6.536;2023-04-01T03:37:01;2.00;;;0.90;;
74658;SDS011;63186;51.204;6.536;2023-04-01T03:39:26;1.03;;;0.90;;
74658;SDS011;63186;51.204;6.536;2023-04-01T03:41:52;1.47;;;0.97;;
74658;SDS011;63186;51.204;6.536;2023-04-01T03:44:17;0.70;;;0.70;;
74658;SDS011;63186;51.204;6.536;2023-04-01T03:46:42;1.17;;;0.80;;
74658;SDS011;63186;51.204;6.536;2023-04-01T03:49:08;3.23;;;1.20;;
74658;SDS011;63186;51.204;6.536;2023-04-01T03:51:45;2.75;;;1.00;;
74658;SDS011;63186;51.204;6.536;2023-04-01T03:54:11;2.38;;;0.93;;
74658;SDS011;63186;51.204;6.536;2023-04-01T03:56:36;1.48;;;0.93;;
74658;SDS011;63186;51.204;6.536;2023-04-01T03:59:03;1.40;;;0.90;;
74658;SDS011;63186;51.204;6.536;2023-04-01T04:01:29;1.45;;;0.88;;
74658;SDS011;63186;51.204;6.536;2023-04-01T04:03:55;1.98;;;1.10;;
74658;SDS011;63186;51.204;6.536;2023-04-01T04:06:21;3.15;;;1.00;;
74658;SDS011;63186;51.204;6.536;2023-04-01T04:08:47;1.65;;;0.90;;
74658;SDS011;63186;51.204;6.536;2023-04-01T04:11:13;1.48;;;0.60;;
74658;SDS011;63186;51.204;6.536;2023-04-01T04:13:38;1.70;;;0.88;;
74658;SDS011;63186;51.204;6.536;2023-04-01T04:16:04;1.38;;;1.05;;
74658;SDS011;63186;51.204;6.536;2023-04-01T04:18:29;3.38;;;1.02;;
74658;SDS011;63186;51.204;6.536;2023-04-01T04:20:55;3.03;;;1.30;;
74658;SDS011;63186;51.204;6.536;2023-04-01T04:23:20;3.53;;;1.25;;
74658;SDS011;63186;51.204;6.536;2023-04-01T04:25:56;2.25;;;1.30;;
74658;SDS011;63186;51.204;6.536;2023-04-01T04:28:23;1.98;;;1.00;;
74658;SDS011;63186;51.204;6.536;2023-04-01T04:30:48;2.42;;;1.20;;
74658;SDS011;63186;51.204;6.536;2023-04-01T04:33:14;1.95;;;1.20;;
74658;SDS011;63186;51.204;6.536;2023-04-01T04:35:40;2.13;;;1.05;;
74658;SDS011;63186;51.204;6.536;2023-04-01T04:38:05;3.03;;;1.13;;
74658;SDS011;63186;51.204;6.536;2023-04-01T04:40:30;1.90;;;1.10;;
74658;SDS011;63186;51.204;6.536;2023-04-01T04:42:55;2.57;;;1.30;;
74658;SDS011;63186;51.204;6.536;2023-04-01T04:45:21;2.38;;;1.02;;
74658;SDS011;63186;51.204;6.536;2023-04-01T04:47:46;4.60;;;1.50;;
74658;SDS011;63186;51.204;6.536;2023-04-01T04:50:11;3.60;;;1.60;;
74658;SDS011;63186;51.204;6.536;2023-04-01T04:52:37;3.55;;;1.38;;
74658;SDS011;63186;51.204;6.536;2023-04-01T04:55:03;2.33;;;1.23;;
74658;SDS011;63186;51.204;6.536;2023-04-01T04:57:28;4.43;;;2.08;;
74658;SDS011;63186;51.204;6.536;2023-04-01T04:59:54;3.72;;;1.30;;
74658;SDS011;63186;51.204;6.536;2023-04-01T05:02:19;4.20;;;1.77;;
74658;SDS011;63186;51.204;6.536;2023-04-01T05:04:44;3.33;;;1.50;;
74658;SDS011;63186;51.204;6.536;2023-04-01T05:07:10;4.78;;;1.50;;
74658;SDS011;63186;51.204;6.536;2023-04-01T05:09:35;5.38;;;2.10;;
74658;SDS011;63186;51.204;6.536;2023-04-01T05:12:01;5.35;;;2.30;;
74658;SDS011;63186;51.204;6.536;2023-04-01T05:14:26;4.33;;;1.90;;
74658;SDS011;63186;51.204;6.536;2023-04-01T05:16:51;2.33;;;1.13;;
74658;SDS011;63186;51.204;6.536;2023-04-01T05:19:16;6.30;;;2.00;;
74658;SDS011;63186;51.204;6.536;2023-04-01T05:21:42;4.57;;;1.93;;
74658;SDS011;63186;51.204;6.536;2023-04-01T05:24:07;5.57;;;2.03;;
74658;SDS011;63186;51.204;6.536;2023-04-01T05:26:34;4.95;;;2.05;;
74658;SDS011;63186;51.204;6.536;2023-04-01T05:29:00;4.07;;;1.67;;
74658;SDS011;63186;51.204;6.536;2023-04-01T05:31:25;3.73;;;1.63;;
74658;SDS011;63186;51.204;6.536;2023-04-01T05:33:50;5.80;;;2.40;;
74658;SDS011;63186;51.204;6.536;2023-04-01T05:36:16;5.22;;;1.90;;
74658;SDS011;63186;51.204;6.536;2023-04-01T05:38:41;7.30;;;2.50;;
74658;SDS011;63186;51.204;6.536;2023-04-01T05:41:08;5.97;;;1.60;;
74658;SDS011;63186;51.204;6.536;2023-04-01T05:43:35;5.07;;;2.35;;
74658;SDS011;63186;51.204;6.536;2023-04-01T05:46:01;5.53;;;1.95;;
74658;SDS011;63186;51.204;6.536;2023-04-01T05:48:26;5.33;;;2.03;;
74658;SDS011;63186;51.204;6.536;2023-04-01T05:50:51;5.53;;;1.97;;
74658;SDS011;63186;51.204;6.536;2023-04-01T05:53:17;4.97;;;2.13;;
74658;SDS011;63186;51.204;6.536;2023-04-01T05:55:42;4.70;;;2.15;;
74658;SDS011;63186;51.204;6.536;2023-04-01T05:58:07;6.63;;;2.72;;
74658;SDS011;63186;51.204;6.536;2023-04-01T06:00:33;6.80;;;2.53;;
74658;SDS011;63186;51.204;6.536;2023-04-01T06:02:59;6.07;;;2.67;;
74658;SDS011;63186;51.204;6.536;2023-04-01T06:05:26;3.45;;;1.60;;
74658;SDS011;63186;51.204;6.536;2023-04-01T06:08:01;5.22;;;2.00;;
74658;SDS011;63186;51.204;6.536;2023-04-01T06:11:36;5.45;;;2.13;;
74658;SDS011;63186;51.204;6.536;2023-04-01T06:19:17;6.57;;;2.20;;
74658;SDS011;63186;51.204;6.536;2023-04-01T06:21:51;5.43;;;1.80;;
74658;SDS011;63186;51.204;6.536;2023-04-01T06:27:25;5.32;;;2.00;;
74658;SDS011;63186;51.204;6.536;2023-04-01T06:46:17;2.63;;;1.30;;
74658;SDS011;63186;51.204;6.536;2023-04-01T06:54:40;3.05;;;1.42;;
74658;SDS011;63186;51.204;6.536;2023-04-01T07:03:03;3.92;;;1.75;;
74658;SDS011;63186;51.204;6.536;2023-04-01T07:05:35;5.00;;;2.05;;
74658;SDS011;63186;51.204;6.536;2023-04-01T07:08:04;2.65;;;1.33;;
74658;SDS011;63186;51.204;6.536;2023-04-01T07:10:43;2.90;;;1.35;;
74658;SDS011;63186;51.204;6.536;2023-04-01T07:13:14;3.88;;;2.10;;
74658;SDS011;63186;51.204;6.536;2023-04-01T07:16:30;1.67;;;1.00;;
74658;SDS011;63186;51.204;6.536;2023-04-01T07:18:42;3.58;;;1.80;;
74658;SDS011;63186;51.204;6.536;2023-04-01T07:21:32;5.15;;;1.73;;
74658;SDS011;63186;51.204;6.536;2023-04-01T07:24:27;3.00;;;1.40;;
74658;SDS011;63186;51.204;6.536;2023-04-01T07:26:57;3.83;;;1.67;;
74658;SDS011;63186;51.204;6.536;2023-04-01T07:29:22;3.58;;;1.58;;
74658;SDS011;63186;51.204;6.536;2023-04-01T07:31:56;3.38;;;1.60;;
74658;SDS011;63186;51.204;6.536;2023-04-01T07:46:14;3.55;;;1.63;;
74658;SDS011;63186;51.204;6.536;2023-04-01T07:51:15;3.53;;;1.52;;
74658;SDS011;63186;51.204;6.536;2023-04-01T07:56:43;2.50;;;1.15;;
74658;SDS011;63186;51.204;6.536;2023-04-01T08:11:41;4.10;;;2.03;;
74658;SDS011;63186;51.204;6.536;2023-04-01T08:23:02;4.63;;;2.22;;
74658;SDS011;63186;51.204;6.536;2023-04-01T08:25:37;4.00;;;1.85;;
74658;SDS011;63186;51.204;6.536;2023-04-01T08:36:15;4.20;;;2.03;;
74658;SDS011;63186;51.204;6.536;2023-04-01T08:39:02;6.03;;;2.55;;
74658;SDS011;63186;51.204;6.536;2023-04-01T08:50:23;6.80;;;2.85;;
74658;SDS011;63186;51.204;6.536;2023-04-01T08:56:03;7.07;;;3.13;;
74658;SDS011;63186;51.204;6.536;2023-04-01T09:01:39;5.35;;;2.63;;
74658;SDS011;63186;51.204;6.536;2023-04-01T09:04:32;7.15;;;3.53;;
74658;SDS011;63186;51.204;6.536;2023-04-01T09:10:18;6.68;;;4.00;;
74658;SDS011;63186;51.204;6.536;2023-04-01T09:16:15;6.25;;;2.72;;
74658;SDS011;63186;51.204;6.536;2023-04-01T09:24:39;8.25;;;4.78;;
74658;SDS011;63186;51.204;6.536;2023-04-01T09:30:33;10.80;;;5.95;;
74658;SDS011;63186;51.204;6.536;2023-04-01T09:36:17;9.27;;;5.00;;
74658;SDS011;63186;51.204;6.536;2023-04-01T09:38:58;8.60;;;4.22;;
74658;SDS011;63186;51.204;6.536;2023-04-01T09:41:58;7.43;;;3.90;;
74658;SDS011;63186;51.204;6.536;2023-04-01T09:53:07;10.23;;;4.90;;
74658;SDS011;63186;51.204;6.536;2023-04-01T10:32:21;7.13;;;3.50;;
74658;SDS011;63186;51.204;6.536;2023-04-01T10:48:36;7.63;;;3.80;;
74658;SDS011;63186;51.204;6.536;2023-04-01T10:54:07;8.45;;;4.15;;
74658;SDS011;63186;51.204;6.536;2023-04-01T10:57:10;9.13;;;5.25;;
74658;SDS011;63186;51.204;6.536;2023-04-01T11:11:47;9.23;;;5.65;;
74658;SDS011;63186;51.204;6.536;2023-04-01T11:42:54;9.05;;;5.00;;
74658;SDS011;63186;51.204;6.536;2023-04-01T11:48:07;11.13;;;6.22;;
74658;SDS011;63186;51.204;6.536;2023-04-01T11:59:13;12.18;;;6.18;;
74658;SDS011;63186;51.204;6.536;2023-04-01T12:01:58;10.32;;;5.40;;
74658;SDS011;63186;51.204;6.536;2023-04-01T12:04:46;10.50;;;5.60;;
74658;SDS011;63186;51.204;6.536;2023-04-01T12:07:23;11.05;;;5.10;;
74658;SDS011;63186;51.204;6.536;2023-04-01T12:21:24;12.40;;;7.07;;
74658;SDS011;63186;51.204;6.536;2023-04-01T12:24:02;10.70;;;5.55;;
74658;SDS011;63186;51.204;6.536;2023-04-01T12:32:25;9.25;;;5.50;;
74658;SDS011;63186;51.204;6.536;2023-04-01T12:35:39;9.77;;;5.35;;
74658;SDS011;63186;51.204;6.536;2023-04-01T12:43:28;9.00;;;4.80;;
74658;SDS011;63186;51.204;6.536;2023-04-01T12:51:50;8.48;;;4.13;;
74658;SDS011;63186;51.204;6.536;2023-04-01T13:16:27;9.32;;;4.30;;
74658;SDS011;63186;51.204;6.536;2023-04-01T13:19:09;7.30;;;4.43;;
74658;SDS011;63186;51.204;6.536;2023-04-01T13:22:09;8.00;;;4.18;;
74658;SDS011;63186;51.204;6.536;2023-04-01T13:27:34;6.45;;;3.20;;
74658;SDS011;63186;51.204;6.536;2023-04-01T13:43:49;6.03;;;3.10;;
74658;SDS011;63186;51.204;6.536;2023-04-01T13:49:25;7.03;;;3.55;;
74658;SDS011;63186;51.204;6.536;2023-04-01T13:52:14;7.93;;;4.65;;
74658;SDS011;63186;51.204;6.536;2023-04-01T13:54:51;7.05;;;3.72;;
74658;SDS011;63186;51.204;6.536;2023-04-01T14:05:44;7.53;;;3.85;;
74658;SDS011;63186;51.204;6.536;2023-04-01T14:08:51;6.93;;;3.53;;
74658;SDS011;63186;51.204;6.536;2023-04-01T14:19:48;6.32;;;2.58;;
74658;SDS011;63186;51.204;6.536;2023-04-01T14:28:25;5.80;;;3.10;;
74658;SDS011;63186;51.204;6.536;2023-04-01T14:31:13;7.10;;;3.13;;
74658;SDS011;63186;51.204;6.536;2023-04-01T14:34:00;6.45;;;3.22;;
74658;SDS011;63186;51.204;6.536;2023-04-01T14:42:53;6.50;;;2.97;;
74658;SDS011;63186;51.204;6.536;2023-04-01T14:45:34;6.53;;;3.28;;
74658;SDS011;63186;51.204;6.536;2023-04-01T14:48:07;5.85;;;2.55;;
74658;SDS011;63186;51.204;6.536;2023-04-01T14:50:46;4.65;;;2.60;;
74658;SDS011;63186;51.204;6.536;2023-04-01T14:58:20;7.40;;;3.45;;
74658;SDS011;63186;51.204;6.536;2023-04-01T15:00:53;8.35;;;4.00;;
74658;SDS011;63186;51.204;6.536;2023-04-01T15:03:29;6.95;;;3.55;;
74658;SDS011;63186;51.204;6.536;2023-04-01T15:06:14;9.52;;;4.20;;
74658;SDS011;63186;51.204;6.536;2023-04-01T15:17:18;6.63;;;3.72;;
74658;SDS011;63186;51.204;6.536;2023-04-01T15:22:51;8.02;;;4.85;;
74658;SDS011;63186;51.204;6.536;2023-04-01T15:28:39;9.05;;;4.95;;
74658;SDS011;63186;51.204;6.536;2023-04-01T15:32:00;7.35;;;3.85;;
74658;SDS011;63186;51.204;6.536;2023-04-01T15:34:21;7.97;;;4.00;;
74658;SDS011;63186;51.204;6.536;2023-04-01T15:48:38;7.38;;;3.63;;
74658;SDS011;63186;51.204;6.536;2023-04-01T15:54:04;7.45;;;3.85;;
74658;SDS011;63186;51.204;6.536;2023-04-01T15:59:18;7.53;;;3.88;;
74658;SDS011;63186;51.204;6.536;2023-04-01T16:01:59;6.22;;;3.00;;
74658;SDS011;63186;51.204;6.536;2023-04-01T16:04:34;7.75;;;4.07;;
74658;SDS011;63186;51.204;6.536;2023-04-01T16:09:49;7.13;;;3.40;;
74658;SDS011;63186;51.204;6.536;2023-04-01T16:12:35;5.38;;;2.80;;
74658;SDS011;63186;51.204;6.536;2023-04-01T16:15:25;7.25;;;3.90;;
74658;SDS011;63186;51.204;6.536;2023-04-01T16:23:33;5.68;;;3.10;;
74658;SDS011;63186;51.204;6.536;2023-04-01T16:26:25;7.53;;;3.85;;
74658;SDS011;63186;51.204;6.536;2023-04-01T16:29:08;7.50;;;3.92;;
74658;SDS011;63186;51.204;6.536;2023-04-01T16:31:43;8.15;;;4.07;;
74658;SDS011;63186;51.204;6.536;2023-04-01T16:34:16;7.82;;;3.72;;
74658;SDS011;63186;51.204;6.536;2023-04-01T16:36:50;7.38;;;3.80;;
74658;SDS011;63186;51.204;6.536;2023-04-01T16:39:27;7.45;;;3.72;;
74658;SDS011;63186;51.204;6.536;2023-04-01T16:42:08;8.05;;;4.30;;
74658;SDS011;63186;51.204;6.536;2023-04-01T16:44:52;8.30;;;4.13;;
74658;SDS011;63186;51.204;6.536;2023-04-01T16:47:22;8.65;;;4.53;;
74658;SDS011;63186;51.204;6.536;2023-04-01T16:49:54;7.75;;;4.60;;
74658;SDS011;63186;51.204;6.536;2023-04-01T16:52:35;7.50;;;4.07;;
74658;SDS011;63186;51.204;6.536;2023-04-01T16:55:15;8.10;;;3.90;;
74658;SDS011;63186;51.204;6.536;2023-04-01T17:05:19;7.03;;;3.77;;
74658;SDS011;63186;51.204;6.536;2023-04-01T17:08:10;7.28;;;3.63;;
74658;SDS011;63186;51.204;6.536;2023-04-01T17:10:53;6.70;;;3.40;;
74658;SDS011;63186;51.204;6.536;2023-04-01T17:18:33;6.93;;;3.50;;
74658;SDS011;63186;51.204;6.536;2023-04-01T17:21:25;7.70;;;3.72;;
74658;SDS011;63186;51.204;6.536;2023-04-01T17:24:16;8.50;;;4.32;;
74658;SDS011;63186;51.204;6.536;2023-04-01T17:26:52;7.50;;;3.88;;
74658;SDS011;63186;51.204;6.536;2023-04-01T17:29:33;6.97;;;3.45;;
74658;SDS011;63186;51.204;6.536;2023-04-01T17:32:37;6.55;;;3.10;;
74658;SDS011;63186;51.204;6.536;2023-04-01T17:40:41;6.00;;;2.95;;
74658;SDS011;63186;51.204;6.536;2023-04-01T17:43:31;5.30;;;2.30;;
74658;SDS011;63186;51.204;6.536;2023-04-01T17:46:22;6.25;;;3.25;;
74658;SDS011;63186;51.204;6.536;2023-04-01T17:52:16;5.15;;;2.60;;
74658;SDS011;63186;51.204;6.536;2023-04-01T17:58:20;5.88;;;2.72;;
74658;SDS011;63186;51.204;6.536;2023-04-01T18:01:21;5.68;;;3.22;;
74658;SDS011;63186;51.204;6.536;2023-04-01T18:10:41;5.18;;;3.08;;
74658;SDS011;63186;51.204;6.536;2023-04-01T18:13:33;7.15;;;2.60;;
74658;SDS011;63186;51.204;6.536;2023-04-01T18:16:06;5.38;;;2.33;;
74658;SDS011;63186;51.204;6.536;2023-04-01T18:21:36;6.47;;;2.97;;
74658;SDS011;63186;51.204;6.536;2023-04-01T18:24:33;8.57;;;3.38;;
74658;SDS011;63186;51.204;6.536;2023-04-01T18:29:54;9.10;;;5.22;;
74658;SDS011;63186;51.204;6.536;2023-04-01T18:38:06;11.25;;;6.20;;
74658;SDS011;63186;51.204;6.536;2023-04-01T18:41:15;11.15;;;5.68;;
74658;SDS011;63186;51.204;6.536;2023-04-01T18:49:40;9.93;;;4.88;;
74658;SDS011;63186;51.204;6.536;2023-04-01T18:52:17;11.95;;;5.90;;
74658;SDS011;63186;51.204;6.536;2023-04-01T18:57:26;11.05;;;6.13;;
74658;SDS011;63186;51.204;6.536;2023-04-01T19:00:26;11.23;;;6.38;;
74658;SDS011;63186;51.204;6.536;2023-04-01T19:05:47;10.70;;;5.55;;
74658;SDS011;63186;51.204;6.536;2023-04-01T19:10:57;9.10;;;5.63;;
74658;SDS011;63186;51.204;6.536;2023-04-01T19:13:42;11.10;;;5.18;;
74658;SDS011;63186;51.204;6.536;2023-04-01T19:16:34;10.00;;;5.43;;
74658;SDS011;63186;51.204;6.536;2023-04-01T19:19:11;8.88;;;4.25;;
74658;SDS011;63186;51.204;6.536;2023-04-01T19:27:46;8.40;;;4.70;;
74658;SDS011;63186;51.204;6.536;2023-04-01T19:30:24;9.68;;;5.13;;
74658;SDS011;63186;51.204;6.536;2023-04-01T19:35:41;8.05;;;3.97;;
74658;SDS011;63186;51.204;6.536;2023-04-01T19:49:14;9.80;;;4.97;;
74658;SDS011;63186;51.204;6.536;2023-04-01T19:54:41;10.38;;;5.35;;
74658;SDS011;63186;51.204;6.536;2023-04-01T19:57:30;9.43;;;4.95;;
74658;SDS011;63186;51.204;6.536;2023-04-01T20:05:45;10.27;;;5.32;;
74658;SDS011;63186;51.204;6.536;2023-04-01T20:19:25;9.70;;;4.63;;
74658;SDS011;63186;51.204;6.536;2023-04-01T20:21:55;11.60;;;5.60;;
74658;SDS011;63186;51.204;6.536;2023-04-01T20:24:36;13.65;;;5.88;;
74658;SDS011;63186;51.204;6.536;2023-04-01T20:27:09;12.63;;;6.32;;
74658;SDS011;63186;51.204;6.536;2023-04-01T20:29:41;11.73;;;6.07;;
74658;SDS011;63186;51.204;6.536;2023-04-01T20:34:44;12.57;;;6.32;;
74658;SDS011;63186;51.204;6.536;2023-04-01T20:37:38;12.48;;;6.63;;
74658;SDS011;63186;51.204;6.536;2023-04-01T20:45:33;13.25;;;7.22;;
74658;SDS011;63186;51.204;6.536;2023-04-01T20:50:59;13.60;;;7.88;;
74658;SDS011;63186;51.204;6.536;2023-04-01T20:53:40;11.73;;;5.93;;
74658;SDS011;63186;51.204;6.536;2023-04-01T20:56:15;13.65;;;6.85;;
74658;SDS011;63186;51.204;6.536;2023-04-01T20:58:53;13.48;;;7.22;;
74658;SDS011;63186;51.204;6.536;2023-04-01T21:04:04;13.10;;;7.25;;
74658;SDS011;63186;51.204;6.536;2023-04-01T21:06:41;13.40;;;7.63;;
74658;SDS011;63186;51.204;6.536;2023-04-01T21:14:51;11.40;;;7.18;;
74658;SDS011;63186;51.204;6.536;2023-04-01T21:23:01;11.55;;;7.05;;
74658;SDS011;63186;51.204;6.536;2023-04-01T21:41:49;14.88;;;9.13;;
74658;SDS011;63186;51.204;6.536;2023-04-01T22:04:29;7.47;;;4.45;;
74658;SDS011;63186;51.204;6.536;2023-04-01T22:07:02;9.10;;;4.88;;
74658;SDS011;63186;51.204;6.536;2023-04-01T22:09:43;11.30;;;5.50;;
74658;SDS011;63186;51.204;6.536;2023-04-01T22:12:22;11.40;;;6.07;;
74658;SDS011;63186;51.204;6.536;2023-04-01T22:17:51;11.93;;;7.13;;
74658;SDS011;63186;51.204;6.536;2023-04-01T22:20:29;10.30;;;6.03;;
74658;SDS011;63186;51.204;6.536;2023-04-01T22:23:14;9.75;;;5.53;;
74658;SDS011;63186;51.204;6.536;2023-04-01T22:26:00;10.20;;;5.90;;
74658;SDS011;63186;51.204;6.536;2023-04-01T22:28:51;12.10;;;5.95;;
74658;SDS011;63186;51.204;6.536;2023-04-01T22:31:33;10.63;;;6.13;;
74658;SDS011;63186;51.204;6.536;2023-04-01T22:34:12;10.48;;;5.80;;
74658;SDS011;63186;51.204;6.536;2023-04-01T22:36:44;10.63;;;5.60;;
74658;SDS011;63186;51.204;6.536;2023-04-01T22:41:43;11.00;;;5.45;;
74658;SDS011;63186;51.204;6.536;2023-04-01T22:49:42;10.23;;;5.55;;
74658;SDS011;63186;51.204;6.536;2023-04-01T22:52:19;9.60;;;4.70;;
74658;SDS011;63186;51.204;6.536;2023-04-01T22:54:56;11.45;;;6.07;;
74658;SDS011;63186;51.204;6.536;2023-04-01T22:57:40;9.32;;;4.68;;
74658;SDS011;63186;51.204;6.536;2023-04-01T23:00:12;12.45;;;5.68;;
74658;SDS011;63186;51.204;6.536;2023-04-01T23:03:27;11.05;;;6.10;;
74658;SDS011;63186;51.204;6.536;2023-04-01T23:05:55;12.20;;;6.60;;
74658;SDS011;63186;51.204;6.536;2023-04-01T23:16:43;11.05;;;6.63;;
74658;SDS011;63186;51.204;6.536;2023-04-01T23:19:25;13.20;;;8.38;;
74658;SDS011;63186;51.204;6.536;2023-04-01T23:22:15;8.98;;;5.40;;
74658;SDS011;63186;51.204;6.536;2023-04-01T23:27:19;11.57;;;7.47;;
74658;SDS011;63186;51.204;6.536;2023-04-01T23:29:54;12.10;;;7.50;;
74658;SDS011;63186;51.204;6.536;2023-04-01T23:32:19;11.83;;;6.50;;
74658;SDS011;63186;51.204;6.536;2023-04-01T23:34:51;11.07;;;5.57;;
74658;SDS011;63186;51.204;6.536;2023-04-01T23:37:18;10.73;;;6.60;;
74658;SDS011;63186;51.204;6.536;2023-04-01T23:39:46;11.07;;;6.50;;
74658;SDS011;63186;51.204;6.536;2023-04-01T23:44:42;9.25;;;4.60;;
74658;SDS011;63186;51.204;6.536;2023-04-01T23:47:09;10.60;;;6.07;;
74658;SDS011;63186;51.204;6.536;2023-04-01T23:49:40;10.00;;;5.28;;
74658;SDS011;63186;51.204;6.536;2023-04-01T23:52:13;9.23;;;5.00;;
74658;SDS011;63186;51.204;6.536;2023-04-01T23:57:26;10.98;;;6.07;;
